createdAt,value
2022-10-22T00:02:10.583Z,1.92
2022-10-22T00:07:12.535Z,1.48
2022-10-22T00:12:16.646Z,1.50
2022-10-22T00:17:18.450Z,1.10
2022-10-22T00:22:20.387Z,1.30
2022-10-22T00:27:22.204Z,2.35
2022-10-22T00:32:24.154Z,2.70
2022-10-22T00:37:26.524Z,1.80
2022-10-22T00:42:31.812Z,2.17
2022-10-22T00:47:39.216Z,2.88
2022-10-22T00:52:43.588Z,3.00
2022-10-22T00:57:48.267Z,4.43
2022-10-22T01:02:52.104Z,5.78
2022-10-22T01:07:56.284Z,5.75
2022-10-22T01:13:10.135Z,4.70
2022-10-22T01:19:01.227Z,5.80
2022-10-22T01:24:22.380Z,5.18
2022-10-22T01:29:52.942Z,5.28
2022-10-22T01:35:01.060Z,5.47
2022-10-22T01:40:05.570Z,4.70
2022-10-22T01:45:12.926Z,5.03
2022-10-22T01:50:17.613Z,5.45
2022-10-22T01:55:35.846Z,4.82
2022-10-22T02:00:44.797Z,4.82
2022-10-22T02:05:53.581Z,5.60
2022-10-22T02:10:57.564Z,6.85
2022-10-22T02:16:01.628Z,6.30
2022-10-22T02:21:03.567Z,6.00
2022-10-22T02:26:15.536Z,7.22
2022-10-22T02:31:23.783Z,6.78
2022-10-22T02:36:26.327Z,7.97
2022-10-22T02:41:28.421Z,8.35
2022-10-22T02:46:30.290Z,7.95
2022-10-22T02:51:32.289Z,7.97
2022-10-22T02:56:34.364Z,8.07
2022-10-22T03:01:36.189Z,7.70
2022-10-22T03:06:38.002Z,8.00
2022-10-22T03:11:39.799Z,7.28
2022-10-22T03:16:41.593Z,7.38
2022-10-22T03:21:53.632Z,7.80
2022-10-22T03:26:55.542Z,8.25
2022-10-22T03:31:57.396Z,7.85
2022-10-22T03:37:01.707Z,8.00
2022-10-22T03:42:05.048Z,7.55
2022-10-22T03:47:07.174Z,7.85
2022-10-22T03:52:12.483Z,7.15
2022-10-22T03:57:14.852Z,8.30
2022-10-22T04:02:17.025Z,7.43
2022-10-22T04:07:18.809Z,7.07
2022-10-22T04:12:20.668Z,7.40
2022-10-22T04:17:23.021Z,7.65
2022-10-22T04:22:24.803Z,8.75
2022-10-22T04:27:30.195Z,7.80
2022-10-22T04:32:32.240Z,7.93
2022-10-22T04:37:34.242Z,8.40
2022-10-22T04:42:36.218Z,7.70
2022-10-22T04:47:38.528Z,7.35
2022-10-22T04:52:40.594Z,7.72
2022-10-22T04:57:42.641Z,8.77
2022-10-22T05:02:49.269Z,8.48
2022-10-22T05:07:51.856Z,8.80
2022-10-22T05:12:53.842Z,8.95
2022-10-22T05:17:55.693Z,8.13
2022-10-22T05:22:57.620Z,8.60
2022-10-22T05:28:00.333Z,9.32
2022-10-22T05:33:02.464Z,8.18
2022-10-22T05:38:04.275Z,8.30
2022-10-22T05:43:06.233Z,8.13
2022-10-22T05:48:09.763Z,7.05
2022-10-22T05:53:12.130Z,7.82
2022-10-22T05:58:14.982Z,8.00
2022-10-22T06:03:16.830Z,8.00
2022-10-22T06:08:19.223Z,7.07
2022-10-22T06:13:23.041Z,7.15
2022-10-22T06:18:24.881Z,7.32
2022-10-22T06:23:26.713Z,6.68
2022-10-22T06:28:28.901Z,5.88
2022-10-22T06:33:33.070Z,6.50
2022-10-22T06:38:35.288Z,7.38
2022-10-22T06:43:37.409Z,6.75
2022-10-22T06:48:40.416Z,6.75
2022-10-22T06:53:42.439Z,6.45
2022-10-22T06:58:46.734Z,6.30
2022-10-22T07:03:51.563Z,8.52
2022-10-22T07:08:58.576Z,8.77
2022-10-22T07:14:01.266Z,8.13
2022-10-22T07:19:04.404Z,7.43
2022-10-22T07:24:06.585Z,11.32
2022-10-22T07:29:09.985Z,10.63
2022-10-22T07:34:11.919Z,2.60
2022-10-22T07:39:13.616Z,2.20
2022-10-22T07:44:15.384Z,1.17
2022-10-22T07:49:17.213Z,1.58
2022-10-22T07:54:19.478Z,0.95
2022-10-22T07:59:21.386Z,1.23
2022-10-22T08:04:23.293Z,0.70
2022-10-22T08:09:25.022Z,0.88
2022-10-22T08:14:26.982Z,0.80
2022-10-22T08:19:29.907Z,0.80
2022-10-22T08:24:31.633Z,0.80
2022-10-22T08:29:33.411Z,0.90
2022-10-22T08:34:35.164Z,0.85
2022-10-22T08:39:37.383Z,0.80
2022-10-22T08:44:58.958Z,1.13
2022-10-22T08:50:00.945Z,1.20
2022-10-22T08:55:04.032Z,0.88
2022-10-22T09:00:09.678Z,0.70
2022-10-22T09:05:23.691Z,0.50
2022-10-22T09:10:29.445Z,0.80
2022-10-22T09:15:31.631Z,0.90
2022-10-22T09:20:46.071Z,0.70
2022-10-22T09:25:51.593Z,0.60
2022-10-22T09:30:54.060Z,0.65
2022-10-22T09:35:59.495Z,1.02
2022-10-22T09:41:04.150Z,0.60
2022-10-22T09:46:14.923Z,0.80
2022-10-22T09:51:36.199Z,0.85
2022-10-22T09:56:42.436Z,0.65
2022-10-22T10:01:44.806Z,1.00
2022-10-22T10:06:55.863Z,0.90
2022-10-22T10:12:29.280Z,0.77
2022-10-22T10:17:56.552Z,1.05
2022-10-22T10:23:10.777Z,0.80
2022-10-22T10:28:21.754Z,0.88
2022-10-22T10:33:35.826Z,0.70
2022-10-22T10:38:40.505Z,0.32
2022-10-22T10:43:54.107Z,0.57
2022-10-22T10:49:00.569Z,0.40
2022-10-22T10:54:11.656Z,0.55
2022-10-22T10:59:43.323Z,0.63
2022-10-22T11:05:22.522Z,0.85
2022-10-22T11:10:39.040Z,0.50
2022-10-22T11:15:44.242Z,0.43
2022-10-22T11:20:51.892Z,0.50
2022-10-22T11:31:03.379Z,0.57
2022-10-22T11:36:07.682Z,0.63
2022-10-22T11:41:16.258Z,0.40
2022-10-22T11:46:17.931Z,0.40
2022-10-22T11:51:47.263Z,0.40
2022-10-22T11:56:53.049Z,0.30
2022-10-22T12:01:56.086Z,0.77
2022-10-22T12:07:00.949Z,0.90
2022-10-22T12:12:12.622Z,0.85
2022-10-22T12:17:16.629Z,0.40
2022-10-22T12:22:23.980Z,0.52
2022-10-22T12:27:30.208Z,0.45
2022-10-22T12:32:37.673Z,0.70
2022-10-22T12:37:39.658Z,0.75
2022-10-22T12:42:48.642Z,0.93
2022-10-22T12:47:53.049Z,0.60
2022-10-22T12:52:55.875Z,0.40
2022-10-22T12:57:58.418Z,0.80
2022-10-22T13:03:05.592Z,0.55
2022-10-22T13:08:13.297Z,0.40
2022-10-22T13:18:44.043Z,0.50
2022-10-22T13:23:56.966Z,0.52
2022-10-22T13:29:01.239Z,0.40
2022-10-22T13:34:09.854Z,0.80
2022-10-22T13:39:24.873Z,0.52
2022-10-22T13:44:26.607Z,0.50
2022-10-22T13:49:28.447Z,0.40
2022-10-22T13:54:30.361Z,0.52
2022-10-22T13:59:32.439Z,0.50
2022-10-22T14:04:36.931Z,0.50
2022-10-22T14:09:38.706Z,0.40
2022-10-22T14:14:40.463Z,0.65
2022-10-22T14:19:45.748Z,0.43
2022-10-22T14:24:47.489Z,0.50
2022-10-22T14:29:49.282Z,0.50
2022-10-22T14:34:51.064Z,0.93
2022-10-22T14:39:59.785Z,0.52
2022-10-22T14:45:01.935Z,0.50
2022-10-22T14:50:04.839Z,0.40
2022-10-22T14:55:07.251Z,0.73
2022-10-22T15:00:15.117Z,0.35
2022-10-22T15:05:17.620Z,0.77
2022-10-22T15:10:19.342Z,0.40
2022-10-22T15:15:22.843Z,1.15
2022-10-22T15:20:25.768Z,0.40
2022-10-22T15:25:28.701Z,0.40
2022-10-22T15:30:30.574Z,0.55
2022-10-22T15:35:32.469Z,0.50
2022-10-22T15:40:34.185Z,0.70
2022-10-22T15:45:36.143Z,0.90
2022-10-22T15:50:39.458Z,0.60
2022-10-22T15:55:49.483Z,0.40
2022-10-22T16:00:51.256Z,0.60
2022-10-22T16:05:57.281Z,0.57
2022-10-22T16:10:59.383Z,1.10
2022-10-22T16:16:05.330Z,2.05
2022-10-22T16:21:12.426Z,1.77
2022-10-22T16:26:14.856Z,1.80
2022-10-22T16:31:18.300Z,1.42
2022-10-22T16:36:21.086Z,1.10
2022-10-22T16:41:24.569Z,1.80
2022-10-22T16:46:26.358Z,1.05
2022-10-22T16:51:28.767Z,1.00
2022-10-22T16:56:30.614Z,1.02
2022-10-22T17:01:35.675Z,1.20
2022-10-22T17:06:39.974Z,1.70
2022-10-22T17:11:42.646Z,1.42
2022-10-22T17:16:49.039Z,1.73
2022-10-22T17:21:51.444Z,1.40
2022-10-22T17:26:53.297Z,1.27
2022-10-22T17:31:55.064Z,1.27
2022-10-22T17:37:00.206Z,0.70
2022-10-22T17:42:02.029Z,1.00
2022-10-22T17:47:04.402Z,1.27
2022-10-22T17:52:06.945Z,1.70
2022-10-22T17:57:09.386Z,1.42
2022-10-22T18:02:16.642Z,1.10
2022-10-22T18:07:18.533Z,1.52
2022-10-22T18:12:20.879Z,1.58
2022-10-22T18:17:22.663Z,1.40
2022-10-22T18:22:24.503Z,1.40
2022-10-22T18:27:26.293Z,1.58
2022-10-22T18:32:28.078Z,1.77
2022-10-22T18:37:31.161Z,1.73
2022-10-22T18:42:37.775Z,1.33
2022-10-22T18:47:41.743Z,1.48
2022-10-22T18:52:43.615Z,1.48
2022-10-22T18:57:45.702Z,1.40
2022-10-22T19:02:47.531Z,1.30
2022-10-22T19:07:50.420Z,1.52
2022-10-22T19:12:52.334Z,1.35
2022-10-22T19:17:54.070Z,1.33
2022-10-22T19:22:56.798Z,1.58
2022-10-22T19:27:58.603Z,2.25
2022-10-22T19:33:00.638Z,1.10
2022-10-22T19:38:02.526Z,1.40
2022-10-22T19:43:04.354Z,1.40
2022-10-22T19:48:06.450Z,1.00
2022-10-22T19:53:08.194Z,1.55
2022-10-22T19:58:10.319Z,1.05
2022-10-22T20:03:14.847Z,1.55
2022-10-22T20:08:17.346Z,1.13
2022-10-22T20:13:19.178Z,0.95
2022-10-22T20:18:22.526Z,0.90
2022-10-22T20:23:24.223Z,1.10
2022-10-22T20:28:26.063Z,1.08
2022-10-22T20:33:27.877Z,0.93
2022-10-22T20:38:29.712Z,1.17
2022-10-22T20:43:32.566Z,0.73
2022-10-22T20:48:34.921Z,1.13
2022-10-22T20:53:36.626Z,1.00
2022-10-22T20:58:38.933Z,1.40
2022-10-22T21:03:40.690Z,1.17
2022-10-22T21:08:42.537Z,0.95
2022-10-22T21:13:44.588Z,1.20
2022-10-22T21:18:47.069Z,1.23
2022-10-22T21:23:50.365Z,1.20
2022-10-22T21:28:52.241Z,1.25
2022-10-22T21:33:54.190Z,1.15
2022-10-22T21:38:56.026Z,1.00
2022-10-22T21:43:58.080Z,1.23
2022-10-22T21:49:02.360Z,1.15
2022-10-22T21:54:04.712Z,0.93
2022-10-22T21:59:07.564Z,0.95
2022-10-22T22:04:09.380Z,0.70
2022-10-22T22:09:11.363Z,1.05
2022-10-22T22:14:13.691Z,1.42
2022-10-22T22:19:15.532Z,0.93
2022-10-22T22:24:17.566Z,0.90
2022-10-22T22:29:19.448Z,0.73
2022-10-22T22:34:21.167Z,1.35
2022-10-22T22:39:23.628Z,1.42
2022-10-22T22:44:25.608Z,0.95
2022-10-22T22:49:27.428Z,1.27
2022-10-22T22:54:29.344Z,0.80
2022-10-22T22:59:31.023Z,0.80
2022-10-22T23:04:32.802Z,0.90
2022-10-22T23:09:34.957Z,1.00
2022-10-22T23:14:36.760Z,1.02
2022-10-22T23:19:38.750Z,0.88
2022-10-22T23:24:40.511Z,1.15
2022-10-22T23:29:42.367Z,0.90
2022-10-22T23:34:44.121Z,0.75
2022-10-22T23:39:45.866Z,1.08
2022-10-22T23:44:47.602Z,0.98
2022-10-22T23:49:49.413Z,0.70
2022-10-22T23:54:51.272Z,0.80
2022-10-22T23:59:53.361Z,0.90
